Time;durP1;ratioP1;P1;durP2;ratioP2;P2;SDS_P1;SDS_P2;PMS_P1;PMS_P2;Temp;Humidity;BMP_temperature;BMP_pressure;BME280_temperature;BME280_humidity;BME280_pressure;Samples;Min_cycle;Max_cycle;Signal;HPM_P1;HPM_P2
2022/03/20 00:05:39;;;;;;;84.17;31.37;;;;;;;-2.33;41.77;101535.17;4217082;83;21469;-81
2022/03/20 00:11:41;;;;;;;78.20;30.13;;;;;;;-2.33;41.95;101533.00;4215782;82;21641;-81
2022/03/20 00:17:42;;;;;;;76.13;33.17;;;;;;;-2.33;43.93;101531.15;4198549;83;21052;-81
2022/03/20 00:23:46;;;;;;;92.40;33.10;;;;;;;-2.31;43.71;101533.09;4196328;83;21946;-81
2022/03/20 00:29:49;;;;;;;79.83;33.03;;;;;;;-2.27;43.20;101537.48;4194740;83;21039;-82
2022/03/20 00:35:50;;;;;;;86.33;35.73;;;;;;;-2.32;43.11;101538.69;4198999;83;21094;-82
2022/03/20 00:41:51;;;;;;;85.73;33.43;;;;;;;-2.42;43.29;101527.68;4201860;83;21034;-82
2022/03/20 00:48:00;;;;;;;77.97;31.10;;;;;;;-2.51;43.48;101527.72;4207133;83;21015;-82
2022/03/20 00:54:02;;;;;;;78.57;37.20;;;;;;;-2.49;48.04;101541.18;4204794;83;21549;-82
2022/03/20 01:00:06;;;;;;;89.10;37.17;;;;;;;-2.57;45.39;101533.48;4198894;83;21942;-82
2022/03/20 01:06:08;;;;;;;89.60;36.67;;;;;;;-2.50;46.15;101532.85;4199986;83;21377;-83
2022/03/20 01:12:10;;;;;;;86.07;37.03;;;;;;;-2.50;45.17;101537.39;4220561;82;21014;-82
2022/03/20 01:18:37;;;;;;;89.77;35.23;;;;;;;-2.43;45.09;101536.27;4204833;83;21034;-84
2022/03/20 01:24:39;;;;;;;82.77;34.33;;;;;;;-2.36;44.95;101536.15;4211713;82;21066;-85
2022/03/20 01:31:28;;;;;;;85.10;35.30;;;;;;;-2.38;44.92;101533.70;4204197;83;21054;-84
2022/03/20 01:37:31;;;;;;;88.23;37.23;;;;;;;-2.37;44.97;101544.73;4182698;83;21078;-84
2022/03/20 01:43:38;;;;;;;85.87;35.90;;;;;;;-2.44;45.13;101535.95;4203616;83;21097;-84
2022/03/20 02:04:04;;;;;;;83.97;36.47;;;;;;;-3.01;45.74;101537.05;3804028;91;21232;-84
2022/03/20 02:17:48;;;;;;;78.60;33.10;;;;;;;-3.28;46.63;101521.81;4136582;84;21050;-82
2022/03/20 02:23:56;;;;;;;93.40;38.43;;;;;;;-3.27;51.38;101526.95;4035466;86;21102;-83
2022/03/20 02:30:30;;;;;;;99.70;38.03;;;;;;;-3.35;48.85;101528.58;4079938;86;21048;-83
2022/03/20 02:43:35;;;;;;;87.37;36.20;;;;;;;-3.49;49.38;101508.84;4085609;86;21076;-82
2022/03/20 02:50:17;;;;;;;85.67;35.43;;;;;;;-3.46;48.64;101515.13;4086883;86;21075;-82
2022/03/20 02:57:08;;;;;;;81.67;34.70;;;;;;;-3.43;48.57;101515.48;3693999;94;21152;-81
2022/03/20 03:03:18;;;;;;;80.83;33.37;;;;;;;-3.40;48.58;101521.72;3750058;90;21495;-81
2022/03/20 03:16:13;;;;;;;84.10;32.60;;;;;;;-3.49;48.72;101520.90;3874637;90;21133;-81
2022/03/20 03:22:14;;;;;;;77.73;32.97;;;;;;;-3.61;48.83;101520.00;4111401;85;21043;-80
2022/03/20 03:28:17;;;;;;;78.43;29.93;;;;;;;-3.70;49.07;101516.81;4112611;85;21067;-80
2022/03/20 03:40:40;;;;;;;83.67;33.43;;;;;;;-3.82;50.88;101525.25;4036086;85;30739;-80
2022/03/20 03:46:41;;;;;;;79.63;34.57;;;;;;;-3.88;50.52;101526.13;4012562;87;21068;-80
2022/03/20 03:52:42;;;;;;;84.77;35.23;;;;;;;-3.88;50.48;101526.64;4013403;87;22123;-80
2022/03/20 03:58:44;;;;;;;88.90;35.27;;;;;;;-4.00;50.29;101532.41;4012815;87;21087;-85
2022/03/20 04:04:47;;;;;;;82.80;35.10;;;;;;;-4.20;50.43;101541.13;4009849;87;21073;-80
2022/03/20 04:10:53;;;;;;;83.20;35.23;;;;;;;-4.28;50.66;101538.20;4014517;87;21033;-80
2022/03/20 04:16:56;;;;;;;95.10;37.25;;;;;;;-4.26;50.85;101533.97;4097214;84;21151;-80
2022/03/20 04:29:22;;;;;;;91.13;38.43;;;;;;;-4.39;51.03;101541.56;4139368;84;21622;-79
2022/03/20 04:35:24;;;;;;;87.40;37.67;;;;;;;-4.40;51.36;101545.25;4137402;84;21085;-81
2022/03/20 04:41:26;;;;;;;92.80;38.23;;;;;;;-4.45;51.54;101549.63;4140208;84;21176;-79
2022/03/20 05:00:05;;;;;;;91.23;37.47;;;;;;;-4.66;52.69;101562.80;4139533;84;21764;-80
2022/03/20 05:06:06;;;;;;;90.47;37.47;;;;;;;-4.69;52.88;101566.41;4140644;84;21033;-80
2022/03/20 05:18:28;;;;;;;85.50;35.63;;;;;;;-4.71;52.95;101569.83;4087010;85;21106;-78
2022/03/20 05:24:30;;;;;;;87.47;36.57;;;;;;;-4.64;53.09;101578.63;4076557;86;21799;-79
2022/03/20 05:30:32;;;;;;;85.43;35.67;;;;;;;-4.47;53.29;101581.92;4076870;85;21086;-79
2022/03/20 05:36:34;;;;;;;81.07;34.17;;;;;;;-4.27;53.41;101586.63;4074519;85;21729;-81
2022/03/20 05:42:36;;;;;;;74.10;31.20;;;;;;;-4.16;53.58;101595.30;4079103;86;21082;-78
2022/03/20 05:48:37;;;;;;;84.23;34.43;;;;;;;-3.98;53.61;101598.58;3992018;87;21181;-78
2022/03/20 05:54:39;;;;;;;83.60;34.40;;;;;;;-3.81;53.79;101594.33;4028341;87;21170;-80
2022/03/20 06:00:41;;;;;;;75.87;34.70;;;;;;;-3.61;54.11;101598.48;3988143;87;21564;-79
2022/03/20 06:06:42;;;;;;;73.20;33.13;;;;;;;-3.35;54.00;101614.80;4074562;85;21547;-78
2022/03/20 06:12:45;;;;;;;74.53;34.10;;;;;;;-2.98;54.14;101619.17;4080442;85;21058;-79
2022/03/20 06:18:47;;;;;;;81.50;33.03;;;;;;;-2.44;54.29;101619.11;4098219;85;21102;-78
2022/03/20 06:24:48;;;;;;;79.73;33.60;;;;;;;-2.00;54.17;101628.09;4100539;85;21570;-78
2022/03/20 06:30:49;;;;;;;77.30;35.47;;;;;;;-1.57;54.35;101633.20;4096401;85;21981;-79
2022/03/20 06:36:55;;;;;;;81.27;35.20;;;;;;;-1.19;54.01;101630.06;4104443;85;21035;-79
2022/03/20 06:42:55;;;;;;;77.87;36.30;;;;;;;-0.69;53.74;101647.31;4102216;85;21070;-80
2022/03/20 06:48:57;;;;;;;77.40;36.33;;;;;;;-0.20;53.63;101649.36;4101693;85;21078;-80
2022/03/20 06:55:00;;;;;;;75.13;35.87;;;;;;;0.19;53.26;101640.95;4094980;85;21085;-81
2022/03/20 07:01:01;;;;;;;85.95;36.53;;;;;;;0.61;53.18;101659.71;4101779;85;21086;-80
2022/03/20 07:07:03;;;;;;;77.27;36.58;;;;;;;0.87;52.95;101674.69;4100886;85;21615;-82
2022/03/20 07:19:32;;;;;;;81.92;37.48;;;;;;;1.19;52.49;101681.09;4100940;85;21043;-82
2022/03/20 07:40:00;;;;;;;76.65;37.00;;;;;;;1.86;51.75;101694.37;4102622;85;21956;-82
2022/03/20 07:53:45;;;;;;;77.22;36.85;;;;;;;2.74;50.66;101690.67;4006233;88;21144;-84
2022/03/20 08:00:17;;;;;;;70.62;36.68;;;;;;;3.25;50.33;101696.70;4008137;88;21057;-84
2022/03/20 08:13:31;;;;;;;70.92;35.88;;;;;;;4.20;49.40;101703.06;3995877;88;21055;-82
2022/03/20 08:27:25;;;;;;;66.05;34.73;;;;;;;4.96;47.69;101696.63;4017203;87;21642;-83
2022/03/20 08:47:36;;;;;;;68.37;35.90;;;;;;;5.96;46.38;101692.31;4008959;87;21133;-85
2022/03/20 08:53:39;;;;;;;61.75;34.35;;;;;;;6.39;45.53;101676.53;4014728;87;22060;-85
2022/03/20 08:59:45;;;;;;;62.45;34.45;;;;;;;6.92;45.80;101675.31;3945892;88;21580;-85
2022/03/20 09:06:10;;;;;;;57.10;31.48;;;;;;;7.44;44.40;101668.48;4014508;89;21084;-85
2022/03/20 09:12:27;;;;;;;56.37;32.85;;;;;;;8.42;44.56;101652.21;4000528;87;21636;-85
2022/03/20 09:25:29;;;;;;;49.85;30.20;;;;;;;9.76;42.97;101647.27;3957908;88;21999;-87
2022/03/20 09:31:34;;;;;;;49.38;29.50;;;;;;;10.81;41.69;101647.58;3945779;88;21133;-86
2022/03/20 09:37:46;;;;;;;45.25;28.98;;;;;;;11.29;38.16;101636.72;3942946;88;21058;-87
2022/03/20 09:43:50;;;;;;;49.20;27.80;;;;;;;11.44;38.77;101634.36;3926061;89;21073;-86
2022/03/20 09:49:55;;;;;;;42.65;25.70;;;;;;;11.87;37.11;101625.70;3946877;88;21576;-86
2022/03/20 09:55:57;;;;;;;36.13;23.45;;;;;;;12.42;37.56;101625.91;3945715;88;21030;-88
2022/03/20 10:02:06;;;;;;;35.75;23.65;;;;;;;12.84;36.96;101627.00;3917254;88;21776;-87
2022/03/20 10:08:17;;;;;;;45.25;25.10;;;;;;;13.10;36.92;101623.08;3934056;89;21183;-87
2022/03/20 10:14:30;;;;;;;39.83;23.38;;;;;;;13.44;34.08;101620.18;3919672;89;21145;-88
2022/03/20 10:20:46;;;;;;;39.23;23.92;;;;;;;13.36;34.30;101626.52;3931613;88;21119;-88
2022/03/20 10:26:47;;;;;;;36.40;23.15;;;;;;;13.33;30.43;101636.00;3991652;87;21010;-88
2022/03/20 10:32:50;;;;;;;40.33;25.37;;;;;;;13.54;31.80;101632.77;4077131;85;21059;-84
2022/03/20 10:38:51;;;;;;;33.38;21.27;;;;;;;13.75;31.77;101628.91;4082434;85;21118;-87
2022/03/20 10:44:58;;;;;;;30.90;20.57;;;;;;;13.88;31.21;101627.88;4080336;85;21042;-86
2022/03/20 10:51:00;;;;;;;33.88;21.17;;;;;;;13.98;29.64;101627.46;4080745;85;21641;-87
2022/03/20 10:57:05;;;;;;;30.55;19.70;;;;;;;13.65;29.63;101612.80;4080256;85;22071;-87
2022/03/20 11:03:05;;;;;;;30.08;20.40;;;;;;;14.27;30.15;101603.22;4077781;85;21292;-87
2022/03/20 11:09:07;;;;;;;31.33;18.92;;;;;;;14.67;29.51;101595.24;4077864;85;21039;-87
2022/03/20 11:15:09;;;;;;;28.12;17.12;;;;;;;15.05;30.37;101571.77;4084424;85;21070;-88
2022/03/20 11:21:11;;;;;;;25.70;15.45;;;;;;;15.52;28.47;101556.40;3996003;87;21081;-87
2022/03/20 11:27:30;;;;;;;24.30;14.45;;;;;;;15.36;28.90;101548.55;4086122;84;21172;-87
2022/03/20 11:33:31;;;;;;;17.20;11.73;;;;;;;15.57;29.04;101536.03;4084311;85;21059;-86
2022/03/20 11:39:38;;;;;;;15.70;11.12;;;;;;;15.57;27.06;101535.47;4088362;85;21035;-86
2022/03/20 11:45:40;;;;;;;14.28;9.58;;;;;;;15.63;26.09;101523.59;3999719;87;21034;-85
2022/03/20 11:51:53;;;;;;;19.60;10.58;;;;;;;14.53;24.73;101531.34;4087627;85;21067;-88
2022/03/20 11:58:00;;;;;;;14.50;9.83;;;;;;;14.46;24.31;101514.54;4084354;85;21015;-89
2022/03/20 12:04:07;;;;;;;16.87;9.95;;;;;;;14.22;25.21;101505.59;4083523;84;310839;-87
2022/03/20 12:10:38;;;;;;;19.77;10.45;;;;;;;13.69;24.41;101500.88;3990693;88;21153;-87
2022/03/20 12:16:51;;;;;;;14.73;9.70;;;;;;;13.31;24.62;101494.66;3966386;84;171614;-88
2022/03/20 12:22:58;;;;;;;17.35;10.30;;;;;;;13.07;23.72;101495.05;3925921;89;21259;-87
2022/03/20 12:29:32;;;;;;;17.40;10.30;;;;;;;12.93;24.36;101486.19;3997516;87;21578;-86
2022/03/20 12:35:45;;;;;;;17.80;10.20;;;;;;;13.05;24.09;101487.69;4001774;87;21062;-88
2022/03/20 12:41:46;;;;;;;15.68;10.95;;;;;;;12.91;24.67;101473.34;3997982;87;21058;-86
2022/03/20 12:48:31;;;;;;;17.42;11.18;;;;;;;12.85;24.41;101469.16;4006730;87;21075;-86
2022/03/20 12:54:58;;;;;;;17.30;11.33;;;;;;;12.68;24.43;101469.47;3963391;87;21618;-87
2022/03/20 13:00:59;;;;;;;16.90;10.32;;;;;;;12.24;23.59;101448.55;3973760;87;21094;-88
2022/03/20 13:07:23;;;;;;;16.10;10.95;;;;;;;12.21;24.34;101455.51;3996613;87;21082;-87
2022/03/20 13:27:20;;;;;;;13.08;8.98;;;;;;;11.95;24.09;101442.96;3905533;89;21719;-86
2022/03/20 13:33:34;;;;;;;13.18;8.43;;;;;;;11.89;24.01;101427.21;3977222;88;21792;-86
2022/03/20 13:39:36;;;;;;;12.45;7.62;;;;;;;11.77;23.90;101429.81;3978800;88;21081;-87
2022/03/20 13:45:38;;;;;;;13.25;8.13;;;;;;;11.80;23.47;101414.62;3990108;87;21116;-87
2022/03/20 13:51:42;;;;;;;11.90;7.67;;;;;;;11.59;23.18;101417.78;3990342;87;21048;-86
2022/03/20 13:57:55;;;;;;;13.32;8.58;;;;;;;11.49;22.59;101418.91;3990405;87;21218;-85
2022/03/20 14:04:09;;;;;;;11.85;7.53;;;;;;;11.34;22.80;101414.47;3988755;87;21615;-87
2022/03/20 14:10:22;;;;;;;13.48;7.97;;;;;;;11.23;23.19;101409.05;4042605;86;21045;-87
2022/03/20 14:16:24;;;;;;;14.05;7.83;;;;;;;11.32;23.04;101412.05;4063231;86;21058;-86
2022/03/20 14:22:42;;;;;;;14.03;7.67;;;;;;;11.28;23.13;101407.50;4030953;86;21046;-86
2022/03/20 14:28:43;;;;;;;13.72;7.35;;;;;;;11.42;23.28;101403.48;4012026;87;21114;-87
2022/03/20 14:41:23;;;;;;;10.95;7.42;;;;;;;11.35;23.23;101391.39;4011101;87;21038;-86
2022/03/20 14:47:33;;;;;;;11.78;7.30;;;;;;;11.26;23.10;101390.00;4010959;87;21101;-86
2022/03/20 14:53:34;;;;;;;12.35;7.60;;;;;;;11.17;23.28;101378.23;4011337;87;21090;-87
2022/03/20 14:59:35;;;;;;;10.40;6.97;;;;;;;10.97;23.19;101380.23;4013756;87;21061;-87
2022/03/20 15:05:37;;;;;;;11.95;6.40;;;;;;;10.70;23.21;101380.48;4011536;87;21552;-87
2022/03/20 15:11:39;;;;;;;11.78;6.03;;;;;;;10.48;23.17;101378.65;4015694;87;21831;-86
2022/03/20 15:17:41;;;;;;;25.37;13.62;;;;;;;10.31;23.23;101375.03;4013424;87;21047;-88
2022/03/20 15:23:44;;;;;;;10.85;6.62;;;;;;;10.25;23.17;101372.19;4045784;86;21090;-86
2022/03/20 15:29:46;;;;;;;10.85;6.72;;;;;;;10.10;23.11;101369.30;4050373;86;21038;-86
2022/03/20 15:43:17;;;;;;;10.43;6.00;;;;;;;9.78;23.50;101369.58;4040783;86;21731;-86
2022/03/20 15:56:39;;;;;;;11.12;6.03;;;;;;;9.35;23.77;101361.06;4035578;86;21048;-86
2022/03/20 16:02:40;;;;;;;9.98;6.10;;;;;;;9.19;23.90;101363.91;4045623;86;21058;-86
2022/03/20 16:08:42;;;;;;;12.53;6.67;;;;;;;9.06;23.99;101355.76;4048137;86;21975;-86
2022/03/20 16:29:05;;;;;;;9.80;6.08;;;;;;;8.46;24.54;101364.70;4018979;87;20982;-86
2022/03/20 16:35:08;;;;;;;12.30;5.80;;;;;;;8.19;24.70;101357.83;4016330;87;21644;-85
2022/03/20 16:41:11;;;;;;;11.83;5.67;;;;;;;7.96;24.83;101362.36;4015459;87;21083;-85
2022/03/20 16:47:12;;;;;;;9.95;5.50;;;;;;;7.69;24.97;101351.94;4015456;87;21642;-85
2022/03/20 16:53:14;;;;;;;15.10;7.10;;;;;;;7.43;25.10;101354.30;4011854;87;21902;-86
2022/03/20 16:59:16;;;;;;;14.05;8.33;;;;;;;7.20;25.20;101352.48;4013308;87;21023;-86
2022/03/20 17:05:17;;;;;;;15.70;9.40;;;;;;;6.95;25.32;101352.86;4014660;87;21046;-86
2022/03/20 17:11:19;;;;;;;14.75;9.08;;;;;;;6.70;25.46;101366.00;4016056;87;21042;-85
2022/03/20 17:17:20;;;;;;;26.40;11.15;;;;;;;6.41;25.60;101363.36;4015193;87;21066;-84
2022/03/20 17:30:22;;;;;;;33.30;14.98;;;;;;;5.84;26.00;101379.19;3802509;91;21137;-85
2022/03/20 17:36:44;;;;;;;26.85;14.30;;;;;;;5.58;26.14;101381.84;3860767;86;21944;-85
2022/03/20 17:42:58;;;;;;;36.40;15.32;;;;;;;5.33;26.35;101385.30;4019953;86;21011;-86
2022/03/20 17:49:21;;;;;;;32.08;13.65;;;;;;;5.12;26.72;101392.77;3998684;87;21060;-85
2022/03/20 17:55:49;;;;;;;27.42;14.35;;;;;;;4.92;26.83;101394.81;3994594;89;21699;-85
2022/03/20 18:08:43;;;;;;;;;;;;;;;4.62;27.16;101396.56;3990395;87;21581;-85
2022/03/20 18:15:23;;;;;;;40.78;21.75;;;;;;;4.55;27.62;101400.67;4045627;86;20141;-85
2022/03/20 18:21:38;;;;;;;45.08;24.02;;;;;;;4.53;27.53;101404.19;4047873;86;21095;-85
2022/03/20 18:28:18;;;;;;;31.00;16.30;;;;;;;4.47;27.83;101414.80;4048431;86;21054;-85
2022/03/20 18:34:19;;;;;;;33.05;14.93;;;;;;;4.40;28.08;101411.58;4048644;86;21062;-85
2022/03/20 18:40:23;;;;;;;38.60;19.82;;;;;;;4.30;28.37;101412.42;3941105;84;10000434;-85
2022/03/20 18:53:06;;;;;;;34.53;16.80;;;;;;;4.21;28.73;101401.05;4049326;86;21627;-85
2022/03/20 18:59:22;;;;;;;33.50;17.82;;;;;;;4.21;29.01;101401.05;4045153;86;21028;-85
2022/03/20 19:05:28;;;;;;;35.45;19.32;;;;;;;4.19;29.22;101404.58;4047462;86;21023;-84
2022/03/20 19:11:42;;;;;;;38.33;19.10;;;;;;;4.14;29.33;101401.87;4047271;86;21026;-85
2022/03/20 19:17:51;;;;;;;33.98;18.02;;;;;;;4.09;29.61;101402.70;4045047;86;21062;-86
2022/03/20 19:24:16;;;;;;;33.48;15.93;;;;;;;4.06;29.76;101405.13;3968930;86;21078;-85
2022/03/20 19:30:27;;;;;;;39.13;19.40;;;;;;;4.06;30.11;101406.48;3937986;89;21065;-86
2022/03/20 19:44:10;;;;;;;39.83;18.67;;;;;;;4.00;30.59;101402.98;3934616;89;21047;-85
2022/03/20 19:57:51;;;;;;;42.00;20.00;;;;;;;3.84;30.71;101378.34;3941499;89;21133;-86
2022/03/20 20:04:05;;;;;;;41.42;20.32;;;;;;;3.91;31.22;101404.64;3942341;89;21065;-84
2022/03/20 20:10:23;;;;;;;43.83;19.60;;;;;;;3.81;31.41;101399.22;3935472;89;21578;-86
2022/03/20 20:16:40;;;;;;;38.28;18.92;;;;;;;3.69;31.77;101397.34;3946508;89;21078;-86
2022/03/20 20:22:50;;;;;;;41.63;20.27;;;;;;;3.50;32.03;101392.72;3972524;86;21074;-85
2022/03/20 20:28:52;;;;;;;35.20;17.73;;;;;;;3.24;32.35;101395.41;4011100;87;21058;-84
2022/03/20 20:41:04;;;;;;;62.20;28.65;;;;;;;2.79;33.44;101406.13;4010353;87;21082;-85
2022/03/20 20:47:09;;;;;;;59.27;27.02;;;;;;;2.35;33.19;101399.45;4014692;87;21896;-85
2022/03/20 20:53:11;;;;;;;67.15;29.55;;;;;;;1.92;33.55;101401.09;4014548;87;21086;-86
2022/03/20 20:59:19;;;;;;;72.42;30.80;;;;;;;1.48;33.55;101406.42;4014887;87;21102;-85
2022/03/20 21:05:27;;;;;;;69.42;29.10;;;;;;;1.16;34.36;101407.73;4019543;87;21042;-84
2022/03/20 21:11:36;;;;;;;57.85;25.00;;;;;;;1.00;34.39;101399.20;4014826;87;21568;-84
2022/03/20 21:17:45;;;;;;;72.42;32.90;;;;;;;0.61;35.21;101398.24;4011590;87;21070;-84
2022/03/20 21:23:46;;;;;;;73.12;29.72;;;;;;;0.61;35.21;101398.24;4031956;86;21007;-85
2022/03/20 21:29:53;;;;;;;;;;;;;;;0.46;35.67;101404.25;4050969;86;21015;-85
2022/03/20 21:36:03;;;;;;;82.53;33.15;;;;;;;0.10;37.82;101391.90;4045697;86;20128;-84
2022/03/20 21:42:06;;;;;;;86.65;34.53;;;;;;;0.10;37.82;101391.90;4046067;86;20987;-84
2022/03/20 21:48:10;;;;;;;91.35;36.77;;;;;;;0.09;37.67;101403.22;4046668;86;20979;-84
2022/03/20 21:54:18;;;;;;;97.27;40.17;;;;;;;-0.14;37.49;101402.05;4046222;86;20983;-84
2022/03/20 22:00:20;;;;;;;86.10;36.68;;;;;;;-0.29;38.38;101399.97;4044068;86;21076;-85
2022/03/20 22:06:41;;;;;;;127.17;48.95;;;;;;;-0.56;38.68;101397.64;4048864;86;21031;-84
2022/03/20 22:12:47;;;;;;;108.07;43.30;;;;;;;-0.72;38.92;101406.50;4049361;86;21071;-84
2022/03/20 22:18:49;;;;;;;90.87;38.40;;;;;;;-0.91;39.25;101413.70;4050672;86;21015;-84
2022/03/20 22:24:51;;;;;;;97.53;40.23;;;;;;;-1.12;39.61;101412.50;4051373;86;21058;-84
2022/03/20 22:30:53;;;;;;;101.90;43.47;;;;;;;-1.30;40.26;101415.36;4049833;86;21087;-83
2022/03/20 22:43:17;;;;;;;99.90;41.07;;;;;;;-1.45;41.01;101420.44;4044771;86;21055;-84
2022/03/20 22:55:41;;;;;;;109.10;48.97;;;;;;;-1.76;41.77;101415.48;4048562;86;21658;-84
2022/03/20 23:01:44;;;;;;;101.57;44.37;;;;;;;-1.86;42.70;101429.50;4049796;86;21420;-84
2022/03/20 23:07:45;;;;;;;105.87;47.43;;;;;;;-1.97;42.16;101439.72;4047560;86;21010;-83
2022/03/20 23:13:47;;;;;;;88.83;39.53;;;;;;;-2.04;42.96;101435.53;4048264;86;20995;-84
2022/03/20 23:19:49;;;;;;;97.47;40.30;;;;;;;-2.11;43.31;101434.30;4051914;86;21039;-83
2022/03/20 23:25:50;;;;;;;85.03;38.10;;;;;;;-2.21;43.45;101430.56;4054411;86;21039;-84
2022/03/20 23:32:17;;;;;;;106.33;42.60;;;;;;;-2.31;43.55;101423.61;4053221;86;21070;-83
2022/03/20 23:38:18;;;;;;;;;;;;;;;-2.39;43.75;101423.43;4044440;86;21412;-83
2022/03/20 23:44:20;;;;;;;78.87;31.70;;;;;;;-2.62;44.48;101415.87;4050963;86;20124;-84
2022/03/20 23:50:21;;;;;;;93.97;37.60;;;;;;;-2.68;42.57;101415.45;4049048;86;21047;-82
2022/03/20 23:56:22;;;;;;;93.33;40.43;;;;;;;-2.61;44.81;101416.16;4050372;86;21086;-82
